sensor_id;sensor_type;location;lat;lon;timestamp;temperature;humidity
3944;DHT22;1986;52.546;13.428;2023-09-19T00:00:17;18.50;99.90
3944;DHT22;1986;52.546;13.428;2023-09-19T00:02:51;18.50;99.90
3944;DHT22;1986;52.546;13.428;2023-09-19T00:05:18;18.50;99.90
3944;DHT22;1986;52.546;13.428;2023-09-19T00:07:52;18.50;99.90
3944;DHT22;1986;52.546;13.428;2023-09-19T00:10:20;18.50;99.90
3944;DHT22;1986;52.546;13.428;2023-09-19T00:12:56;18.40;99.90
3944;DHT22;1986;52.546;13.428;2023-09-19T00:15:25;18.40;99.90
3944;DHT22;1986;52.546;13.428;2023-09-19T00:17:54;18.40;99.90
3944;DHT22;1986;52.546;13.428;2023-09-19T00:20:24;18.50;99.90
3944;DHT22;1986;52.546;13.428;2023-09-19T00:22:51;18.40;99.90
3944;DHT22;1986;52.546;13.428;2023-09-19T00:25:21;18.40;99.90
3944;DHT22;1986;52.546;13.428;2023-09-19T00:27:48;18.40;99.90
3944;DHT22;1986;52.546;13.428;2023-09-19T00:30:18;18.40;99.90
3944;DHT22;1986;52.546;13.428;2023-09-19T00:32:50;18.30;99.90
3944;DHT22;1986;52.546;13.428;2023-09-19T00:35:22;18.30;99.90
3944;DHT22;1986;52.546;13.428;2023-09-19T00:37:53;18.30;99.90
3944;DHT22;1986;52.546;13.428;2023-09-19T00:40:21;18.30;99.90
3944;DHT22;1986;52.546;13.428;2023-09-19T00:42:48;18.30;99.90
3944;DHT22;1986;52.546;13.428;2023-09-19T00:45:18;18.30;99.90
3944;DHT22;1986;52.546;13.428;2023-09-19T00:47:48;18.30;99.90
3944;DHT22;1986;52.546;13.428;2023-09-19T00:50:18;18.30;99.90
3944;DHT22;1986;52.546;13.428;2023-09-19T00:52:46;18.30;99.90
3944;DHT22;1986;52.546;13.428;2023-09-19T00:55:21;18.30;99.90
3944;DHT22;1986;52.546;13.428;2023-09-19T00:57:48;18.30;99.90
3944;DHT22;1986;52.546;13.428;2023-09-19T01:00:20;18.20;99.90
3944;DHT22;1986;52.546;13.428;2023-09-19T01:02:48;18.20;99.90
3944;DHT22;1986;52.546;13.428;2023-09-19T01:05:19;18.20;99.90
3944;DHT22;1986;52.546;13.428;2023-09-19T01:07:49;18.20;99.90
3944;DHT22;1986;52.546;13.428;2023-09-19T01:10:18;18.20;99.90
3944;DHT22;1986;52.546;13.428;2023-09-19T01:12:54;18.20;99.90
3944;DHT22;1986;52.546;13.428;2023-09-19T01:15:29;18.20;99.90
3944;DHT22;1986;52.546;13.428;2023-09-19T01:18:11;18.20;99.90
3944;DHT22;1986;52.546;13.428;2023-09-19T01:20:49;18.20;99.90
3944;DHT22;1986;52.546;13.428;2023-09-19T01:23:29;18.20;99.90
3944;DHT22;1986;52.546;13.428;2023-09-19T01:26:18;18.20;99.90
3944;DHT22;1986;52.546;13.428;2023-09-19T01:29:01;18.20;99.90
3944;DHT22;1986;52.546;13.428;2023-09-19T01:31:32;18.30;99.90
3944;DHT22;1986;52.546;13.428;2023-09-19T01:34:02;18.30;99.90
3944;DHT22;1986;52.546;13.428;2023-09-19T01:36:32;18.30;99.90
3944;DHT22;1986;52.546;13.428;2023-09-19T01:39:02;18.40;99.90
3944;DHT22;1986;52.546;13.428;2023-09-19T01:41:45;18.40;99.90
3944;DHT22;1986;52.546;13.428;2023-09-19T01:44:22;18.40;99.90
3944;DHT22;1986;52.546;13.428;2023-09-19T01:46:56;18.40;99.90
3944;DHT22;1986;52.546;13.428;2023-09-19T01:49:31;18.40;99.90
3944;DHT22;1986;52.546;13.428;2023-09-19T01:52:04;18.50;99.90
3944;DHT22;1986;52.546;13.428;2023-09-19T01:54:36;18.50;99.90
3944;DHT22;1986;52.546;13.428;2023-09-19T01:57:12;18.50;99.90
3944;DHT22;1986;52.546;13.428;2023-09-19T01:59:52;18.50;99.90
3944;DHT22;1986;52.546;13.428;2023-09-19T02:02:24;18.40;99.90
3944;DHT22;1986;52.546;13.428;2023-09-19T02:04:52;18.40;99.90
3944;DHT22;1986;52.546;13.428;2023-09-19T02:07:22;18.40;99.90
3944;DHT22;1986;52.546;13.428;2023-09-19T02:09:49;18.40;99.90
3944;DHT22;1986;52.546;13.428;2023-09-19T02:12:16;18.30;99.90
3944;DHT22;1986;52.546;13.428;2023-09-19T02:14:43;18.30;99.90
3944;DHT22;1986;52.546;13.428;2023-09-19T02:17:12;18.30;99.90
3944;DHT22;1986;52.546;13.428;2023-09-19T02:19:43;18.30;99.90
3944;DHT22;1986;52.546;13.428;2023-09-19T02:22:10;18.20;99.90
3944;DHT22;1986;52.546;13.428;2023-09-19T02:24:37;18.20;99.90
3944;DHT22;1986;52.546;13.428;2023-09-19T02:27:04;18.20;99.90
3944;DHT22;1986;52.546;13.428;2023-09-19T02:29:33;18.10;99.90
3944;DHT22;1986;52.546;13.428;2023-09-19T02:32:01;18.20;99.90
3944;DHT22;1986;52.546;13.428;2023-09-19T02:34:28;18.10;99.90
3944;DHT22;1986;52.546;13.428;2023-09-19T02:37:03;18.10;99.90
3944;DHT22;1986;52.546;13.428;2023-09-19T02:39:31;18.10;99.90
3944;DHT22;1986;52.546;13.428;2023-09-19T02:41:58;18.10;99.90
3944;DHT22;1986;52.546;13.428;2023-09-19T02:44:25;18.00;99.90
3944;DHT22;1986;52.546;13.428;2023-09-19T02:46:54;18.00;99.90
3944;DHT22;1986;52.546;13.428;2023-09-19T02:49:25;18.00;99.90
3944;DHT22;1986;52.546;13.428;2023-09-19T02:51:52;18.00;99.90
3944;DHT22;1986;52.546;13.428;2023-09-19T02:54:20;18.00;99.90
3944;DHT22;1986;52.546;13.428;2023-09-19T02:56:49;18.00;99.90
3944;DHT22;1986;52.546;13.428;2023-09-19T02:59:16;18.00;99.90
3944;DHT22;1986;52.546;13.428;2023-09-19T03:01:45;17.90;99.90
3944;DHT22;1986;52.546;13.428;2023-09-19T03:04:13;17.90;99.90
3944;DHT22;1986;52.546;13.428;2023-09-19T03:06:45;17.90;99.90
3944;DHT22;1986;52.546;13.428;2023-09-19T03:09:14;17.90;99.90
3944;DHT22;1986;52.546;13.428;2023-09-19T03:11:43;17.90;99.90
3944;DHT22;1986;52.546;13.428;2023-09-19T03:14:12;17.90;99.90
3944;DHT22;1986;52.546;13.428;2023-09-19T03:16:39;17.90;99.90
3944;DHT22;1986;52.546;13.428;2023-09-19T03:19:07;17.90;99.90
3944;DHT22;1986;52.546;13.428;2023-09-19T03:21:36;17.90;99.90
3944;DHT22;1986;52.546;13.428;2023-09-19T03:24:06;17.90;99.90
3944;DHT22;1986;52.546;13.428;2023-09-19T03:26:33;17.90;99.90
3944;DHT22;1986;52.546;13.428;2023-09-19T03:29:03;17.90;99.90
3944;DHT22;1986;52.546;13.428;2023-09-19T03:31:33;17.90;99.90
3944;DHT22;1986;52.546;13.428;2023-09-19T03:34:02;17.90;99.90
3944;DHT22;1986;52.546;13.428;2023-09-19T03:36:30;17.90;99.90
3944;DHT22;1986;52.546;13.428;2023-09-19T03:38:57;18.00;99.90
3944;DHT22;1986;52.546;13.428;2023-09-19T03:41:28;18.00;99.90
3944;DHT22;1986;52.546;13.428;2023-09-19T03:43:56;18.00;99.90
3944;DHT22;1986;52.546;13.428;2023-09-19T03:46:24;17.90;99.90
3944;DHT22;1986;52.546;13.428;2023-09-19T03:48:53;18.00;99.90
3944;DHT22;1986;52.546;13.428;2023-09-19T03:51:20;17.90;99.90
3944;DHT22;1986;52.546;13.428;2023-09-19T03:53:47;17.90;99.90
3944;DHT22;1986;52.546;13.428;2023-09-19T03:56:14;17.90;99.90
3944;DHT22;1986;52.546;13.428;2023-09-19T03:58:41;17.90;99.90
3944;DHT22;1986;52.546;13.428;2023-09-19T04:01:09;17.90;99.90
3944;DHT22;1986;52.546;13.428;2023-09-19T04:03:37;17.90;99.90
3944;DHT22;1986;52.546;13.428;2023-09-19T04:06:12;17.90;99.90
3944;DHT22;1986;52.546;13.428;2023-09-19T04:08:39;17.80;99.90
3944;DHT22;1986;52.546;13.428;2023-09-19T04:11:07;17.80;99.90
3944;DHT22;1986;52.546;13.428;2023-09-19T04:13:34;17.80;99.90
3944;DHT22;1986;52.546;13.428;2023-09-19T04:16:01;17.80;99.90
3944;DHT22;1986;52.546;13.428;2023-09-19T04:18:29;17.80;99.90
3944;DHT22;1986;52.546;13.428;2023-09-19T04:20:59;17.70;99.90
3944;DHT22;1986;52.546;13.428;2023-09-19T04:23:28;17.70;99.90
3944;DHT22;1986;52.546;13.428;2023-09-19T04:25:55;17.80;99.90
3944;DHT22;1986;52.546;13.428;2023-09-19T04:28:24;17.70;99.90
3944;DHT22;1986;52.546;13.428;2023-09-19T04:30:53;17.60;99.90
3944;DHT22;1986;52.546;13.428;2023-09-19T04:33:20;17.60;99.90
3944;DHT22;1986;52.546;13.428;2023-09-19T04:35:56;17.60;99.90
3944;DHT22;1986;52.546;13.428;2023-09-19T04:38:27;17.50;99.90
3944;DHT22;1986;52.546;13.428;2023-09-19T04:40:57;17.50;99.90
3944;DHT22;1986;52.546;13.428;2023-09-19T04:43:24;17.50;99.90
3944;DHT22;1986;52.546;13.428;2023-09-19T04:45:51;17.50;99.90
3944;DHT22;1986;52.546;13.428;2023-09-19T04:48:21;17.50;99.90
3944;DHT22;1986;52.546;13.428;2023-09-19T04:50:49;17.40;99.90
3944;DHT22;1986;52.546;13.428;2023-09-19T04:53:16;17.40;99.90
3944;DHT22;1986;52.546;13.428;2023-09-19T04:55:54;17.40;99.90
3944;DHT22;1986;52.546;13.428;2023-09-19T04:58:22;17.40;99.90
3944;DHT22;1986;52.546;13.428;2023-09-19T05:00:49;17.40;99.90
3944;DHT22;1986;52.546;13.428;2023-09-19T05:03:16;17.30;99.90
3944;DHT22;1986;52.546;13.428;2023-09-19T05:05:45;17.30;99.90
3944;DHT22;1986;52.546;13.428;2023-09-19T05:08:12;17.20;99.90
3944;DHT22;1986;52.546;13.428;2023-09-19T05:10:40;17.20;99.90
3944;DHT22;1986;52.546;13.428;2023-09-19T05:13:10;17.20;99.90
3944;DHT22;1986;52.546;13.428;2023-09-19T05:15:37;17.20;99.90
3944;DHT22;1986;52.546;13.428;2023-09-19T05:18:05;17.20;99.90
3944;DHT22;1986;52.546;13.428;2023-09-19T05:20:32;17.20;99.90
3944;DHT22;1986;52.546;13.428;2023-09-19T05:23:04;17.20;99.90
3944;DHT22;1986;52.546;13.428;2023-09-19T05:25:33;17.20;99.90
3944;DHT22;1986;52.546;13.428;2023-09-19T05:28:03;17.10;99.90
3944;DHT22;1986;52.546;13.428;2023-09-19T05:30:32;17.20;99.90
3944;DHT22;1986;52.546;13.428;2023-09-19T05:33:01;17.10;99.90
3944;DHT22;1986;52.546;13.428;2023-09-19T05:35:30;17.10;99.90
3944;DHT22;1986;52.546;13.428;2023-09-19T05:37:57;17.10;99.90
3944;DHT22;1986;52.546;13.428;2023-09-19T05:40:25;17.10;99.90
3944;DHT22;1986;52.546;13.428;2023-09-19T05:42:55;17.10;99.90
3944;DHT22;1986;52.546;13.428;2023-09-19T05:45:23;17.10;99.90
3944;DHT22;1986;52.546;13.428;2023-09-19T05:47:52;17.10;99.90
3944;DHT22;1986;52.546;13.428;2023-09-19T05:50:21;17.10;99.90
3944;DHT22;1986;52.546;13.428;2023-09-19T05:52:52;17.20;99.90
3944;DHT22;1986;52.546;13.428;2023-09-19T05:55:19;17.20;99.90
3944;DHT22;1986;52.546;13.428;2023-09-19T05:57:50;17.20;99.90
3944;DHT22;1986;52.546;13.428;2023-09-19T06:00:18;17.20;99.90
3944;DHT22;1986;52.546;13.428;2023-09-19T06:02:51;17.30;99.90
3944;DHT22;1986;52.546;13.428;2023-09-19T06:05:19;17.30;99.90
3944;DHT22;1986;52.546;13.428;2023-09-19T06:07:46;17.40;99.90
3944;DHT22;1986;52.546;13.428;2023-09-19T06:10:14;17.40;99.90
3944;DHT22;1986;52.546;13.428;2023-09-19T06:12:41;17.40;99.90
3944;DHT22;1986;52.546;13.428;2023-09-19T06:15:10;17.30;99.90
3944;DHT22;1986;52.546;13.428;2023-09-19T06:17:45;17.40;99.90
3944;DHT22;1986;52.546;13.428;2023-09-19T06:20:17;17.40;99.90
3944;DHT22;1986;52.546;13.428;2023-09-19T06:22:45;17.50;99.90
3944;DHT22;1986;52.546;13.428;2023-09-19T06:25:13;17.40;99.90
3944;DHT22;1986;52.546;13.428;2023-09-19T06:27:45;17.40;99.90
3944;DHT22;1986;52.546;13.428;2023-09-19T06:30:12;17.40;99.90
3944;DHT22;1986;52.546;13.428;2023-09-19T06:32:40;17.40;99.90
3944;DHT22;1986;52.546;13.428;2023-09-19T06:35:11;17.50;99.90
3944;DHT22;1986;52.546;13.428;2023-09-19T06:37:40;17.60;99.90
3944;DHT22;1986;52.546;13.428;2023-09-19T06:40:08;17.80;99.90
3944;DHT22;1986;52.546;13.428;2023-09-19T06:42:40;17.80;99.90
3944;DHT22;1986;52.546;13.428;2023-09-19T06:45:09;17.90;99.90
3944;DHT22;1986;52.546;13.428;2023-09-19T06:47:40;18.10;99.90
3944;DHT22;1986;52.546;13.428;2023-09-19T06:50:08;18.00;99.90
3944;DHT22;1986;52.546;13.428;2023-09-19T06:52:40;18.10;99.90
3944;DHT22;1986;52.546;13.428;2023-09-19T06:55:08;18.20;99.90
3944;DHT22;1986;52.546;13.428;2023-09-19T06:57:39;18.30;99.90
3944;DHT22;1986;52.546;13.428;2023-09-19T07:00:07;18.30;99.90
3944;DHT22;1986;52.546;13.428;2023-09-19T07:02:43;18.30;99.90
3944;DHT22;1986;52.546;13.428;2023-09-19T07:05:12;18.50;99.90
3944;DHT22;1986;52.546;13.428;2023-09-19T07:07:41;18.50;99.90
3944;DHT22;1986;52.546;13.428;2023-09-19T07:10:10;18.80;99.90
3944;DHT22;1986;52.546;13.428;2023-09-19T07:12:38;18.90;99.90
3944;DHT22;1986;52.546;13.428;2023-09-19T07:15:07;19.10;99.90
3944;DHT22;1986;52.546;13.428;2023-09-19T07:17:36;19.10;99.90
3944;DHT22;1986;52.546;13.428;2023-09-19T07:20:04;19.10;99.90
3944;DHT22;1986;52.546;13.428;2023-09-19T07:22:35;19.00;99.90
3944;DHT22;1986;52.546;13.428;2023-09-19T07:25:07;18.80;99.90
3944;DHT22;1986;52.546;13.428;2023-09-19T07:27:37;18.70;99.90
3944;DHT22;1986;52.546;13.428;2023-09-19T07:30:05;18.50;99.90
3944;DHT22;1986;52.546;13.428;2023-09-19T07:32:35;18.50;99.90
3944;DHT22;1986;52.546;13.428;2023-09-19T07:35:04;18.40;99.90
3944;DHT22;1986;52.546;13.428;2023-09-19T07:37:35;18.50;99.90
3944;DHT22;1986;52.546;13.428;2023-09-19T07:40:02;18.50;99.90
3944;DHT22;1986;52.546;13.428;2023-09-19T07:42:34;18.30;99.90
3944;DHT22;1986;52.546;13.428;2023-09-19T07:45:02;18.40;99.90
3944;DHT22;1986;52.546;13.428;2023-09-19T07:47:29;18.50;99.90
3944;DHT22;1986;52.546;13.428;2023-09-19T07:49:58;18.50;99.90
3944;DHT22;1986;52.546;13.428;2023-09-19T07:52:27;18.60;99.90
3944;DHT22;1986;52.546;13.428;2023-09-19T07:54:54;18.70;99.90
3944;DHT22;1986;52.546;13.428;2023-09-19T07:57:22;18.60;99.90
3944;DHT22;1986;52.546;13.428;2023-09-19T07:59:51;18.70;99.90
3944;DHT22;1986;52.546;13.428;2023-09-19T08:02:18;18.60;99.90
3944;DHT22;1986;52.546;13.428;2023-09-19T08:04:48;18.70;99.90
3944;DHT22;1986;52.546;13.428;2023-09-19T08:07:17;18.80;99.90
3944;DHT22;1986;52.546;13.428;2023-09-19T08:09:44;18.80;99.90
3944;DHT22;1986;52.546;13.428;2023-09-19T08:12:14;18.80;99.90
3944;DHT22;1986;52.546;13.428;2023-09-19T08:14:42;18.90;99.90
3944;DHT22;1986;52.546;13.428;2023-09-19T08:17:10;18.70;99.90
3944;DHT22;1986;52.546;13.428;2023-09-19T08:19:39;18.70;99.90
3944;DHT22;1986;52.546;13.428;2023-09-19T08:22:10;18.60;99.90
3944;DHT22;1986;52.546;13.428;2023-09-19T08:24:40;18.50;99.90
3944;DHT22;1986;52.546;13.428;2023-09-19T08:27:08;18.50;99.90
3944;DHT22;1986;52.546;13.428;2023-09-19T08:29:35;18.60;99.90
3944;DHT22;1986;52.546;13.428;2023-09-19T08:32:03;18.40;99.90
3944;DHT22;1986;52.546;13.428;2023-09-19T08:34:34;18.30;99.90
3944;DHT22;1986;52.546;13.428;2023-09-19T08:37:07;18.40;99.90
3944;DHT22;1986;52.546;13.428;2023-09-19T08:39:35;18.30;99.90
3944;DHT22;1986;52.546;13.428;2023-09-19T08:42:08;18.30;99.90
3944;DHT22;1986;52.546;13.428;2023-09-19T08:44:39;18.20;99.90
3944;DHT22;1986;52.546;13.428;2023-09-19T08:47:33;18.20;99.90
3944;DHT22;1986;52.546;13.428;2023-09-19T08:50:28;18.30;99.90
3944;DHT22;1986;52.546;13.428;2023-09-19T08:55:52;18.40;99.90
3944;DHT22;1986;52.546;13.428;2023-09-19T08:58:37;18.40;99.90
3944;DHT22;1986;52.546;13.428;2023-09-19T09:01:20;18.40;99.90
3944;DHT22;1986;52.546;13.428;2023-09-19T09:03:51;18.40;99.90
3944;DHT22;1986;52.546;13.428;2023-09-19T09:06:21;18.50;99.90
3944;DHT22;1986;52.546;13.428;2023-09-19T09:08:50;18.40;99.90
3944;DHT22;1986;52.546;13.428;2023-09-19T09:11:19;18.40;99.90
3944;DHT22;1986;52.546;13.428;2023-09-19T09:13:47;18.40;99.90
3944;DHT22;1986;52.546;13.428;2023-09-19T09:16:16;18.60;99.90
3944;DHT22;1986;52.546;13.428;2023-09-19T09:18:44;18.60;99.90
3944;DHT22;1986;52.546;13.428;2023-09-19T09:21:11;18.80;99.90
3944;DHT22;1986;52.546;13.428;2023-09-19T09:23:42;18.80;99.90
3944;DHT22;1986;52.546;13.428;2023-09-19T09:26:10;19.10;99.30
3944;DHT22;1986;52.546;13.428;2023-09-19T09:28:44;19.10;96.60
3944;DHT22;1986;52.546;13.428;2023-09-19T09:31:25;19.40;95.60
3944;DHT22;1986;52.546;13.428;2023-09-19T09:33:56;19.60;94.50
3944;DHT22;1986;52.546;13.428;2023-09-19T09:36:34;19.80;89.40
3944;DHT22;1986;52.546;13.428;2023-09-19T09:39:04;19.80;82.60
3944;DHT22;1986;52.546;13.428;2023-09-19T09:41:41;19.80;73.90
3944;DHT22;1986;52.546;13.428;2023-09-19T09:44:13;19.50;67.80
3944;DHT22;1986;52.546;13.428;2023-09-19T09:46:42;19.40;71.40
3944;DHT22;1986;52.546;13.428;2023-09-19T09:49:47;19.30;72.60
3944;DHT22;1986;52.546;13.428;2023-09-19T09:52:20;19.60;72.70
3944;DHT22;1986;52.546;13.428;2023-09-19T09:55:00;19.70;66.30
3944;DHT22;1986;52.546;13.428;2023-09-19T09:57:31;19.70;58.20
3944;DHT22;1986;52.546;13.428;2023-09-19T09:59:59;19.40;51.10
3944;DHT22;1986;52.546;13.428;2023-09-19T10:02:42;19.40;49.70
3944;DHT22;1986;52.546;13.428;2023-09-19T10:05:13;19.60;45.00
3944;DHT22;1986;52.546;13.428;2023-09-19T10:08:10;19.70;41.00
3944;DHT22;1986;52.546;13.428;2023-09-19T10:10:40;19.60;32.40
3944;DHT22;1986;52.546;13.428;2023-09-19T10:13:23;19.40;18.60
3944;DHT22;1986;52.546;13.428;2023-09-19T10:15:54;19.30;6.50
3944;DHT22;1986;52.546;13.428;2023-09-19T10:18:25;19.30;7.60
3944;DHT22;1986;52.546;13.428;2023-09-19T10:20:53;19.60;6.90
3944;DHT22;1986;52.546;13.428;2023-09-19T10:23:21;19.70;1.00
3944;DHT22;1986;52.546;13.428;2023-09-19T10:25:51;19.60;1.00
3944;DHT22;1986;52.546;13.428;2023-09-19T10:28:20;19.60;1.00
3944;DHT22;1986;52.546;13.428;2023-09-19T10:30:48;19.60;1.00
3944;DHT22;1986;52.546;13.428;2023-09-19T10:33:18;19.70;1.00
3944;DHT22;1986;52.546;13.428;2023-09-19T10:35:48;20.00;1.00
3944;DHT22;1986;52.546;13.428;2023-09-19T10:38:19;19.90;1.00
3944;DHT22;1986;52.546;13.428;2023-09-19T10:40:51;19.80;1.00
3944;DHT22;1986;52.546;13.428;2023-09-19T10:43:19;19.70;1.00
3944;DHT22;1986;52.546;13.428;2023-09-19T10:45:49;19.80;1.00
3944;DHT22;1986;52.546;13.428;2023-09-19T10:48:19;19.70;1.00
3944;DHT22;1986;52.546;13.428;2023-09-19T10:50:55;19.80;1.00
3944;DHT22;1986;52.546;13.428;2023-09-19T10:53:26;19.90;1.00
3944;DHT22;1986;52.546;13.428;2023-09-19T10:55:57;19.90;1.00
3944;DHT22;1986;52.546;13.428;2023-09-19T10:58:27;19.80;1.00
3944;DHT22;1986;52.546;13.428;2023-09-19T11:00:56;19.70;1.00
3944;DHT22;1986;52.546;13.428;2023-09-19T11:03:29;19.60;1.00
3944;DHT22;1986;52.546;13.428;2023-09-19T11:06:17;19.80;1.00
3944;DHT22;1986;52.546;13.428;2023-09-19T11:08:52;19.90;1.00
3944;DHT22;1986;52.546;13.428;2023-09-19T11:11:43;19.90;99.90
3944;DHT22;1986;52.546;13.428;2023-09-19T11:14:16;20.10;99.90
3944;DHT22;1986;52.546;13.428;2023-09-19T11:20:32;20.30;1.00
3944;DHT22;1986;52.546;13.428;2023-09-19T11:23:24;20.20;1.00
3944;DHT22;1986;52.546;13.428;2023-09-19T11:25:54;20.20;1.00
3944;DHT22;1986;52.546;13.428;2023-09-19T11:28:30;20.30;1.00
3944;DHT22;1986;52.546;13.428;2023-09-19T11:30:57;20.40;1.00
3944;DHT22;1986;52.546;13.428;2023-09-19T11:33:25;20.20;1.00
3944;DHT22;1986;52.546;13.428;2023-09-19T11:36:03;20.30;99.90
3944;DHT22;1986;52.546;13.428;2023-09-19T11:41:48;20.20;99.90
3944;DHT22;1986;52.546;13.428;2023-09-19T11:44:34;20.30;99.90
3944;DHT22;1986;52.546;13.428;2023-09-19T11:47:05;20.40;99.90
3944;DHT22;1986;52.546;13.428;2023-09-19T11:49:33;20.30;99.90
3944;DHT22;1986;52.546;13.428;2023-09-19T11:52:03;20.20;99.90
3944;DHT22;1986;52.546;13.428;2023-09-19T11:54:32;20.20;99.90
3944;DHT22;1986;52.546;13.428;2023-09-19T11:57:00;20.30;62.60
3944;DHT22;1986;52.546;13.428;2023-09-19T11:59:29;20.40;1.00
3944;DHT22;1986;52.546;13.428;2023-09-19T12:02:03;20.30;1.00
3944;DHT22;1986;52.546;13.428;2023-09-19T12:04:35;20.40;1.00
3944;DHT22;1986;52.546;13.428;2023-09-19T12:07:06;20.40;1.00
3944;DHT22;1986;52.546;13.428;2023-09-19T12:09:41;20.30;1.00
3944;DHT22;1986;52.546;13.428;2023-09-19T12:12:10;20.30;1.00
3944;DHT22;1986;52.546;13.428;2023-09-19T12:14:39;20.30;1.00
3944;DHT22;1986;52.546;13.428;2023-09-19T12:17:10;20.50;1.00
3944;DHT22;1986;52.546;13.428;2023-09-19T12:19:38;20.50;1.00
3944;DHT22;1986;52.546;13.428;2023-09-19T12:22:05;20.40;1.00
3944;DHT22;1986;52.546;13.428;2023-09-19T12:24:35;20.30;1.00
3944;DHT22;1986;52.546;13.428;2023-09-19T12:27:05;20.10;1.00
3944;DHT22;1986;52.546;13.428;2023-09-19T12:29:41;20.20;1.00
3944;DHT22;1986;52.546;13.428;2023-09-19T12:32:12;20.40;1.00
3944;DHT22;1986;52.546;13.428;2023-09-19T12:34:51;20.60;1.00
3944;DHT22;1986;52.546;13.428;2023-09-19T12:37:21;20.50;1.00
3944;DHT22;1986;52.546;13.428;2023-09-19T12:39:49;20.70;1.00
3944;DHT22;1986;52.546;13.428;2023-09-19T12:42:20;20.70;1.00
3944;DHT22;1986;52.546;13.428;2023-09-19T12:44:54;20.70;99.90
3944;DHT22;1986;52.546;13.428;2023-09-19T12:47:24;20.70;99.90
3944;DHT22;1986;52.546;13.428;2023-09-19T12:50:10;20.70;99.90
3944;DHT22;1986;52.546;13.428;2023-09-19T12:52:44;20.70;99.90
3944;DHT22;1986;52.546;13.428;2023-09-19T12:55:26;20.70;99.90
3944;DHT22;1986;52.546;13.428;2023-09-19T12:58:02;20.50;99.90
3944;DHT22;1986;52.546;13.428;2023-09-19T13:00:32;20.50;99.90
3944;DHT22;1986;52.546;13.428;2023-09-19T13:03:27;20.40;99.90
3944;DHT22;1986;52.546;13.428;2023-09-19T13:05:57;20.50;99.90
3944;DHT22;1986;52.546;13.428;2023-09-19T13:08:27;20.70;99.90
3944;DHT22;1986;52.546;13.428;2023-09-19T13:11:06;20.70;99.90
3944;DHT22;1986;52.546;13.428;2023-09-19T13:13:35;20.80;99.90
3944;DHT22;1986;52.546;13.428;2023-09-19T13:16:03;20.80;99.90
3944;DHT22;1986;52.546;13.428;2023-09-19T13:18:43;20.80;99.90
3944;DHT22;1986;52.546;13.428;2023-09-19T13:21:27;20.70;99.90
3944;DHT22;1986;52.546;13.428;2023-09-19T13:23:55;20.70;99.90
3944;DHT22;1986;52.546;13.428;2023-09-19T13:26:25;20.60;99.90
3944;DHT22;1986;52.546;13.428;2023-09-19T13:28:51;20.50;99.90
3944;DHT22;1986;52.546;13.428;2023-09-19T13:31:18;20.50;99.90
3944;DHT22;1986;52.546;13.428;2023-09-19T13:33:49;20.50;99.90
3944;DHT22;1986;52.546;13.428;2023-09-19T13:36:17;20.50;99.90
3944;DHT22;1986;52.546;13.428;2023-09-19T13:38:44;20.40;99.90
3944;DHT22;1986;52.546;13.428;2023-09-19T13:41:14;20.40;99.90
3944;DHT22;1986;52.546;13.428;2023-09-19T13:43:42;20.50;99.90
3944;DHT22;1986;52.546;13.428;2023-09-19T13:46:16;20.40;99.90
3944;DHT22;1986;52.546;13.428;2023-09-19T13:48:52;20.30;99.90
3944;DHT22;1986;52.546;13.428;2023-09-19T13:51:20;20.30;99.90
3944;DHT22;1986;52.546;13.428;2023-09-19T13:53:50;20.30;99.90
3944;DHT22;1986;52.546;13.428;2023-09-19T13:56:17;20.40;99.90
3944;DHT22;1986;52.546;13.428;2023-09-19T13:58:44;20.40;99.90
3944;DHT22;1986;52.546;13.428;2023-09-19T14:01:11;20.40;99.90
3944;DHT22;1986;52.546;13.428;2023-09-19T14:03:39;20.40;99.90
3944;DHT22;1986;52.546;13.428;2023-09-19T14:06:07;20.50;99.90
3944;DHT22;1986;52.546;13.428;2023-09-19T14:08:34;20.40;99.90
3944;DHT22;1986;52.546;13.428;2023-09-19T14:11:05;20.40;99.90
3944;DHT22;1986;52.546;13.428;2023-09-19T14:13:32;20.50;99.90
3944;DHT22;1986;52.546;13.428;2023-09-19T14:16:03;20.50;99.90
3944;DHT22;1986;52.546;13.428;2023-09-19T14:18:32;20.50;99.90
3944;DHT22;1986;52.546;13.428;2023-09-19T14:21:03;20.70;99.90
3944;DHT22;1986;52.546;13.428;2023-09-19T14:23:35;20.80;99.90
3944;DHT22;1986;52.546;13.428;2023-09-19T14:26:03;20.90;99.90
3944;DHT22;1986;52.546;13.428;2023-09-19T14:28:31;20.80;99.90
3944;DHT22;1986;52.546;13.428;2023-09-19T14:31:04;20.90;99.90
3944;DHT22;1986;52.546;13.428;2023-09-19T14:33:31;20.90;99.90
3944;DHT22;1986;52.546;13.428;2023-09-19T14:36:02;20.90;99.90
3944;DHT22;1986;52.546;13.428;2023-09-19T14:38:36;21.00;99.90
3944;DHT22;1986;52.546;13.428;2023-09-19T14:41:04;20.90;99.90
3944;DHT22;1986;52.546;13.428;2023-09-19T14:43:32;20.90;99.90
3944;DHT22;1986;52.546;13.428;2023-09-19T14:46:02;20.80;99.90
3944;DHT22;1986;52.546;13.428;2023-09-19T14:48:30;20.60;99.90
3944;DHT22;1986;52.546;13.428;2023-09-19T14:51:02;20.70;99.90
3944;DHT22;1986;52.546;13.428;2023-09-19T14:53:29;20.60;99.90
3944;DHT22;1986;52.546;13.428;2023-09-19T14:56:00;20.70;99.90
3944;DHT22;1986;52.546;13.428;2023-09-19T14:58:28;20.70;99.90
3944;DHT22;1986;52.546;13.428;2023-09-19T15:01:02;20.60;1.00
3944;DHT22;1986;52.546;13.428;2023-09-19T15:03:29;20.50;1.00
3944;DHT22;1986;52.546;13.428;2023-09-19T15:05:59;20.60;1.00
3944;DHT22;1986;52.546;13.428;2023-09-19T15:08:30;20.60;1.00
3944;DHT22;1986;52.546;13.428;2023-09-19T15:11:01;20.60;1.00
3944;DHT22;1986;52.546;13.428;2023-09-19T15:13:33;20.60;1.00
3944;DHT22;1986;52.546;13.428;2023-09-19T15:16:01;20.60;1.00
3944;DHT22;1986;52.546;13.428;2023-09-19T15:18:28;20.60;1.00
3944;DHT22;1986;52.546;13.428;2023-09-19T15:20:56;20.60;1.00
3944;DHT22;1986;52.546;13.428;2023-09-19T15:23:24;20.60;1.00
3944;DHT22;1986;52.546;13.428;2023-09-19T15:25:56;20.70;1.00
3944;DHT22;1986;52.546;13.428;2023-09-19T15:28:25;20.60;99.90
3944;DHT22;1986;52.546;13.428;2023-09-19T15:30:57;20.50;99.90
3944;DHT22;1986;52.546;13.428;2023-09-19T15:33:24;20.50;99.90
3944;DHT22;1986;52.546;13.428;2023-09-19T15:35:52;20.50;99.90
3944;DHT22;1986;52.546;13.428;2023-09-19T15:38:58;20.50;1.00
3944;DHT22;1986;52.546;13.428;2023-09-19T15:41:27;20.50;1.00
3944;DHT22;1986;52.546;13.428;2023-09-19T15:43:57;20.50;1.00
3944;DHT22;1986;52.546;13.428;2023-09-19T15:46:26;20.50;1.00
3944;DHT22;1986;52.546;13.428;2023-09-19T15:48:56;20.40;1.00
3944;DHT22;1986;52.546;13.428;2023-09-19T15:51:24;20.50;1.00
3944;DHT22;1986;52.546;13.428;2023-09-19T15:53:55;20.50;1.00
3944;DHT22;1986;52.546;13.428;2023-09-19T15:56:23;20.50;1.00
3944;DHT22;1986;52.546;13.428;2023-09-19T15:58:51;20.50;1.00
3944;DHT22;1986;52.546;13.428;2023-09-19T16:01:21;20.50;1.00
3944;DHT22;1986;52.546;13.428;2023-09-19T16:03:52;20.50;1.00
3944;DHT22;1986;52.546;13.428;2023-09-19T16:06:22;20.50;1.00
3944;DHT22;1986;52.546;13.428;2023-09-19T16:08:53;20.50;1.00
3944;DHT22;1986;52.546;13.428;2023-09-19T16:11:24;20.50;1.00
3944;DHT22;1986;52.546;13.428;2023-09-19T16:13:52;20.40;1.00
3944;DHT22;1986;52.546;13.428;2023-09-19T16:16:23;20.40;1.00
3944;DHT22;1986;52.546;13.428;2023-09-19T16:18:52;20.30;1.00
3944;DHT22;1986;52.546;13.428;2023-09-19T16:21:21;20.30;1.00